Time;durP1;ratioP1;P1;durP2;ratioP2;P2;SDS_P1;SDS_P2;PMS_P1;PMS_P2;Temp;Humidity;BMP_temperature;BMP_pressure;BME280_temperature;BME280_humidity;BME280_pressure;Samples;Min_cycle;Max_cycle;Signal;HPM_P1;HPM_P2
2023/03/08 00:00:34;;;;;;;0.82;0.82;;;;;;;;;;7389167;19;19999;-68
2023/03/08 00:03:01;;;;;;;1.75;1.05;;;;;;;;;;7385549;19;20024;-68
2023/03/08 00:05:27;;;;;;;1.55;1.00;;;;;;;;;;7394199;19;19998;-68
2023/03/08 00:07:52;;;;;;;1.65;0.95;;;;;;;;;;7389230;19;20005;-69
2023/03/08 00:10:18;;;;;;;1.27;0.85;;;;;;;;;;7386743;19;20014;-68
2023/03/08 00:12:43;;;;;;;1.65;1.10;;;;;;;;;;7386356;19;20004;-69
2023/03/08 00:15:10;;;;;;;1.50;0.90;;;;;;;;;;7388632;19;20001;-69
2023/03/08 00:17:37;;;;;;;2.88;1.10;;;;;;;;;;7391582;19;20007;-69
2023/03/08 00:20:04;;;;;;;1.58;1.00;;;;;;;;;;7386470;19;19999;-69
2023/03/08 00:22:34;;;;;;;1.15;1.05;;;;;;;;;;7386020;19;20468;-69
2023/03/08 00:25:00;;;;;;;1.13;0.95;;;;;;;;;;7388470;19;20002;-69
2023/03/08 00:27:25;;;;;;;1.27;0.90;;;;;;;;;;7388055;19;20006;-68
2023/03/08 00:29:50;;;;;;;1.52;1.00;;;;;;;;;;7388139;19;20528;-68
2023/03/08 00:32:16;;;;;;;1.23;1.00;;;;;;;;;;7387088;19;20002;-68
2023/03/08 00:34:45;;;;;;;1.40;1.00;;;;;;;;;;7387537;19;20011;-69
2023/03/08 00:37:10;;;;;;;1.65;1.00;;;;;;;;;;7388767;19;19998;-69
2023/03/08 00:39:35;;;;;;;1.60;1.10;;;;;;;;;;7388102;19;20002;-69
2023/03/08 00:42:01;;;;;;;1.05;0.98;;;;;;;;;;7386067;19;19994;-69
2023/03/08 00:44:26;;;;;;;1.45;1.00;;;;;;;;;;7387408;19;20001;-69
2023/03/08 00:46:51;;;;;;;0.77;0.77;;;;;;;;;;7388116;19;20456;-68
2023/03/08 00:49:16;;;;;;;0.98;0.90;;;;;;;;;;7387863;19;19991;-68
2023/03/08 00:51:42;;;;;;;1.15;0.80;;;;;;;;;;7386925;19;20370;-68
2023/03/08 00:54:07;;;;;;;1.55;0.98;;;;;;;;;;7387650;19;19999;-68
2023/03/08 00:56:32;;;;;;;1.13;1.02;;;;;;;;;;7386325;19;20536;-68
2023/03/08 00:58:58;;;;;;;1.35;1.10;;;;;;;;;;7387468;19;20001;-68
2023/03/08 01:01:23;;;;;;;1.38;1.15;;;;;;;;;;7387472;19;20457;-68
2023/03/08 01:03:48;;;;;;;1.45;1.10;;;;;;;;;;7387043;19;20016;-68
2023/03/08 01:06:14;;;;;;;1.25;1.10;;;;;;;;;;7387361;19;20395;-68
2023/03/08 01:08:41;;;;;;;2.35;1.30;;;;;;;;;;7387574;19;20005;-68
2023/03/08 01:11:16;;;;;;;2.30;1.30;;;;;;;;;;7387156;19;20503;-68
2023/03/08 01:13:41;;;;;;;4.10;1.42;;;;;;;;;;7384727;19;20007;-72
2023/03/08 01:16:24;;;;;;;2.35;1.13;;;;;;;;;;7388258;19;20115;-72
2023/03/08 01:18:50;;;;;;;1.90;1.38;;;;;;;;;;7386448;19;20392;-72
2023/03/08 01:21:15;;;;;;;2.58;1.40;;;;;;;;;;7390648;19;19995;-71
2023/03/08 01:23:41;;;;;;;2.30;1.55;;;;;;;;;;7385511;19;20493;-73
2023/03/08 01:26:11;;;;;;;2.40;1.58;;;;;;;;;;7387850;19;20002;-72
2023/03/08 01:28:36;;;;;;;2.97;1.77;;;;;;;;;;7387679;19;20049;-72
2023/03/08 01:31:09;;;;;;;2.58;1.50;;;;;;;;;;7389765;19;20006;-71
2023/03/08 01:33:35;;;;;;;3.13;1.58;;;;;;;;;;7384861;19;20041;-72
2023/03/08 01:36:03;;;;;;;3.08;1.50;;;;;;;;;;7392711;19;20019;-73
2023/03/08 01:38:28;;;;;;;2.33;1.50;;;;;;;;;;7395261;19;19998;-72
2023/03/08 01:40:58;;;;;;;2.55;1.65;;;;;;;;;;7394459;19;20500;-71
2023/03/08 01:43:26;;;;;;;4.18;1.63;;;;;;;;;;7392257;19;20036;-72
2023/03/08 01:46:14;;;;;;;2.28;1.45;;;;;;;;;;7394727;19;20002;-72
2023/03/08 01:48:44;;;;;;;2.33;1.50;;;;;;;;;;7394423;19;20488;-72
2023/03/08 01:51:14;;;;;;;2.50;1.63;;;;;;;;;;7394150;19;20007;-73
2023/03/08 01:53:39;;;;;;;2.78;1.73;;;;;;;;;;7389466;19;19995;-71
2023/03/08 01:56:08;;;;;;;2.88;1.63;;;;;;;;;;7394475;19;19999;-72
2023/03/08 01:58:34;;;;;;;2.83;1.85;;;;;;;;;;7394392;19;20074;-71
2023/03/08 02:01:00;;;;;;;5.03;2.17;;;;;;;;;;7394218;19;20109;-73
2023/03/08 02:03:25;;;;;;;4.68;2.45;;;;;;;;;;7391343;19;19999;-72
2023/03/08 02:05:50;;;;;;;3.63;2.05;;;;;;;;;;7393946;19;19999;-72
2023/03/08 02:08:16;;;;;;;5.07;2.60;;;;;;;;;;7393764;19;20030;-72
2023/03/08 02:10:42;;;;;;;4.75;2.15;;;;;;;;;;7392383;19;20365;-72
2023/03/08 02:13:08;;;;;;;3.78;2.30;;;;;;;;;;7389601;19;20007;-71
2023/03/08 02:15:34;;;;;;;4.45;2.10;;;;;;;;;;7390882;19;19998;-72
2023/03/08 02:17:59;;;;;;;4.30;2.10;;;;;;;;;;7391030;19;20003;-72
2023/03/08 02:20:30;;;;;;;5.10;2.55;;;;;;;;;;7389392;19;20070;-72
2023/03/08 02:23:15;;;;;;;4.18;2.30;;;;;;;;;;7392106;19;20002;-73
2023/03/08 02:25:49;;;;;;;4.97;2.38;;;;;;;;;;7391757;19;20095;-72
2023/03/08 02:28:15;;;;;;;4.75;2.40;;;;;;;;;;7391068;19;20002;-71
2023/03/08 02:30:40;;;;;;;4.90;2.67;;;;;;;;;;7390735;19;20079;-72
2023/03/08 02:33:06;;;;;;;3.80;2.05;;;;;;;;;;7388347;19;20007;-72
2023/03/08 02:35:31;;;;;;;4.70;2.33;;;;;;;;;;7390979;19;20440;-71
2023/03/08 02:37:56;;;;;;;4.15;2.28;;;;;;;;;;7391370;19;20477;-73
2023/03/08 02:40:22;;;;;;;2.85;1.83;;;;;;;;;;7390582;19;20357;-72
2023/03/08 02:42:47;;;;;;;3.25;1.88;;;;;;;;;;7389172;19;20444;-72
2023/03/08 02:45:12;;;;;;;6.40;2.20;;;;;;;;;;7388351;19;20555;-72
2023/03/08 02:47:38;;;;;;;2.83;1.70;;;;;;;;;;7390447;19;20440;-72
2023/03/08 02:50:04;;;;;;;3.88;1.88;;;;;;;;;;7390648;19;20039;-74
2023/03/08 02:52:30;;;;;;;3.97;2.15;;;;;;;;;;7389188;19;20080;-72
2023/03/08 02:54:55;;;;;;;4.22;2.17;;;;;;;;;;7387155;19;20015;-73
2023/03/08 02:57:20;;;;;;;3.83;1.90;;;;;;;;;;7394621;19;20019;-72
2023/03/08 02:59:46;;;;;;;5.30;2.20;;;;;;;;;;7392253;19;19999;-73
2023/03/08 03:02:11;;;;;;;5.50;2.38;;;;;;;;;;7393656;19;19994;-72
2023/03/08 03:04:36;;;;;;;4.35;2.22;;;;;;;;;;7392754;19;19995;-72
2023/03/08 03:07:02;;;;;;;5.20;2.30;;;;;;;;;;7390313;19;19991;-71
2023/03/08 03:09:27;;;;;;;4.13;2.30;;;;;;;;;;7390050;19;20358;-72
2023/03/08 03:11:55;;;;;;;4.50;2.30;;;;;;;;;;7365103;19;2743947;-72
2023/03/08 03:14:20;;;;;;;5.22;2.47;;;;;;;;;;7391443;19;20080;-72
2023/03/08 03:16:46;;;;;;;8.70;4.22;;;;;;;;;;7390424;19;20006;-72
2023/03/08 03:19:11;;;;;;;6.32;3.13;;;;;;;;;;7390549;19;20027;-72
2023/03/08 03:21:40;;;;;;;5.63;3.08;;;;;;;;;;7389856;19;20023;-72
2023/03/08 03:24:06;;;;;;;9.82;5.82;;;;;;;;;;7388675;19;20003;-71
2023/03/08 03:26:31;;;;;;;20.02;10.02;;;;;;;;;;7391541;19;20009;-71
2023/03/08 03:28:58;;;;;;;35.45;19.92;;;;;;;;;;7392089;19;20428;-72
2023/03/08 03:31:25;;;;;;;23.27;12.63;;;;;;;;;;7393031;19;20002;-73
2023/03/08 03:33:51;;;;;;;11.10;6.32;;;;;;;;;;7388866;19;20030;-71
2023/03/08 03:36:18;;;;;;;8.38;3.80;;;;;;;;;;7391219;19;20352;-72
2023/03/08 03:38:45;;;;;;;15.27;8.77;;;;;;;;;;7390896;19;19995;-72
2023/03/08 03:41:14;;;;;;;6.80;3.40;;;;;;;;;;7391132;19;20002;-72
2023/03/08 03:43:40;;;;;;;15.60;7.28;;;;;;;;;;7388902;19;20091;-72
2023/03/08 03:46:08;;;;;;;10.52;4.18;;;;;;;;;;7390463;19;19995;-73
2023/03/08 03:48:34;;;;;;;6.03;3.28;;;;;;;;;;7391377;19;20123;-71
2023/03/08 03:51:05;;;;;;;10.75;5.38;;;;;;;;;;7391008;19;20013;-71
2023/03/08 03:53:32;;;;;;;11.68;5.90;;;;;;;;;;7388795;19;20003;-71
2023/03/08 03:56:11;;;;;;;7.38;4.15;;;;;;;;;;7389758;19;20003;-72
2023/03/08 03:58:36;;;;;;;13.35;6.22;;;;;;;;;;7390032;19;20403;-72
2023/03/08 04:01:14;;;;;;;11.77;5.95;;;;;;;;;;7392258;19;19994;-71
2023/03/08 04:03:39;;;;;;;14.45;6.68;;;;;;;;;;7390339;19;19991;-72
2023/03/08 04:06:12;;;;;;;12.27;6.45;;;;;;;;;;7394672;19;19999;-70
2023/03/08 04:08:43;;;;;;;15.25;7.00;;;;;;;;;;7396989;19;20076;-70
2023/03/08 04:11:17;;;;;;;12.23;7.05;;;;;;;;;;7396037;19;20002;-72
2023/03/08 04:13:43;;;;;;;16.13;7.53;;;;;;;;;;7394871;19;19991;-73
2023/03/08 04:16:13;;;;;;;16.48;7.90;;;;;;;;;;7391249;19;20050;-72
2023/03/08 04:18:38;;;;;;;14.27;6.82;;;;;;;;;;7389526;19;20021;-71
2023/03/08 04:21:04;;;;;;;13.25;6.78;;;;;;;;;;7390184;19;20033;-73
2023/03/08 04:23:30;;;;;;;15.13;7.40;;;;;;;;;;7388716;19;20047;-71
2023/03/08 04:25:55;;;;;;;13.98;7.18;;;;;;;;;;7391927;19;20054;-73
2023/03/08 04:28:20;;;;;;;15.90;6.90;;;;;;;;;;7391449;19;20003;-71
2023/03/08 04:30:46;;;;;;;16.10;7.43;;;;;;;;;;7388883;19;19999;-70
2023/03/08 04:33:11;;;;;;;22.88;7.25;;;;;;;;;;7387964;19;20086;-71
2023/03/08 04:35:36;;;;;;;14.70;6.38;;;;;;;;;;7389503;19;20562;-71
2023/03/08 04:38:02;;;;;;;13.68;6.43;;;;;;;;;;7389336;19;20317;-73
2023/03/08 04:40:28;;;;;;;13.75;7.07;;;;;;;;;;7388849;19;20014;-72
2023/03/08 04:42:54;;;;;;;16.90;7.20;;;;;;;;;;7385707;19;19999;-72
2023/03/08 04:45:19;;;;;;;14.13;6.93;;;;;;;;;;7389241;19;20009;-71
2023/03/08 04:47:44;;;;;;;15.13;7.03;;;;;;;;;;7388958;19;20002;-71
2023/03/08 04:50:10;;;;;;;16.02;7.20;;;;;;;;;;7389141;19;20014;-70
2023/03/08 04:52:35;;;;;;;16.42;7.32;;;;;;;;;;7387108;19;20005;-72
2023/03/08 04:55:01;;;;;;;13.43;6.30;;;;;;;;;;7387418;19;20002;-72
2023/03/08 04:57:26;;;;;;;16.42;7.43;;;;;;;;;;7387500;19;20070;-71
2023/03/08 04:59:51;;;;;;;11.70;6.57;;;;;;;;;;7388739;19;20006;-72
2023/03/08 05:02:17;;;;;;;16.92;7.28;;;;;;;;;;7385984;19;20044;-71
2023/03/08 05:04:42;;;;;;;14.02;6.63;;;;;;;;;;7390809;19;20002;-72
2023/03/08 05:07:07;;;;;;;14.95;6.32;;;;;;;;;;7389956;19;20504;-70
2023/03/08 05:09:33;;;;;;;14.70;7.38;;;;;;;;;;7388205;19;19994;-73
2023/03/08 05:11:58;;;;;;;13.98;7.78;;;;;;;;;;7386634;19;20006;-73
2023/03/08 05:14:24;;;;;;;17.55;7.05;;;;;;;;;;7391163;19;20522;-71
2023/03/08 05:16:53;;;;;;;15.18;6.65;;;;;;;;;;7392415;19;20476;-72
2023/03/08 05:19:18;;;;;;;14.35;7.30;;;;;;;;;;7389919;19;20631;-72
2023/03/08 05:21:43;;;;;;;15.40;7.15;;;;;;;;;;7393515;19;20054;-72
2023/03/08 05:24:09;;;;;;;16.05;6.90;;;;;;;;;;7392780;19;19995;-73
2023/03/08 05:26:34;;;;;;;18.70;8.10;;;;;;;;;;7330697;19;20003;-71
2023/03/08 05:29:05;;;;;;;17.48;7.30;;;;;;;;;;7389885;19;20073;-73
2023/03/08 05:31:31;;;;;;;14.40;6.93;;;;;;;;;;7385544;19;19995;-71
2023/03/08 05:33:59;;;;;;;16.77;7.32;;;;;;;;;;7383744;19;20020;-71
2023/03/08 05:36:24;;;;;;;16.50;7.50;;;;;;;;;;7387535;19;20013;-72
2023/03/08 05:38:53;;;;;;;13.20;6.72;;;;;;;;;;7383707;19;20059;-70
2023/03/08 05:41:19;;;;;;;13.93;6.70;;;;;;;;;;7384069;19;20076;-71
2023/03/08 05:43:45;;;;;;;15.18;7.63;;;;;;;;;;7381542;19;20007;-69
2023/03/08 05:46:13;;;;;;;15.48;7.65;;;;;;;;;;7387408;19;19995;-72
2023/03/08 05:48:39;;;;;;;16.58;8.85;;;;;;;;;;7386716;19;20025;-71
2023/03/08 05:51:06;;;;;;;13.90;7.22;;;;;;;;;;7386334;19;19998;-72
2023/03/08 05:53:32;;;;;;;18.85;8.98;;;;;;;;;;7384603;19;20058;-71
2023/03/08 05:56:23;;;;;;;16.42;7.82;;;;;;;;;;7386620;19;20380;-72
2023/03/08 05:58:49;;;;;;;17.02;8.40;;;;;;;;;;7390985;19;20398;-72
2023/03/08 06:01:21;;;;;;;16.58;7.93;;;;;;;;;;7390922;19;20010;-72
2023/03/08 06:03:49;;;;;;;17.90;8.00;;;;;;;;;;7383376;19;20018;-71
2023/03/08 06:06:16;;;;;;;17.73;8.40;;;;;;;;;;7387193;19;20473;-71
2023/03/08 06:08:41;;;;;;;16.42;8.90;;;;;;;;;;7381928;19;20025;-71
2023/03/08 06:11:07;;;;;;;16.80;9.50;;;;;;;;;;7384546;19;20594;-71
2023/03/08 06:13:33;;;;;;;18.38;9.43;;;;;;;;;;7378277;19;20009;-72
2023/03/08 06:15:59;;;;;;;17.75;8.43;;;;;;;;;;7382430;19;20432;-70
2023/03/08 06:18:25;;;;;;;17.08;8.30;;;;;;;;;;7385524;19;20062;-71
2023/03/08 06:20:59;;;;;;;17.77;9.13;;;;;;;;;;7386542;19;20488;-72
2023/03/08 06:23:25;;;;;;;15.85;8.82;;;;;;;;;;7389241;19;20062;-71
2023/03/08 06:25:50;;;;;;;16.15;6.75;;;;;;;;;;7391220;19;20061;-70
2023/03/08 06:28:15;;;;;;;16.42;7.45;;;;;;;;;;7393059;19;20023;-72
2023/03/08 06:30:41;;;;;;;18.67;7.97;;;;;;;;;;7392768;19;20019;-72
2023/03/08 06:33:06;;;;;;;14.18;7.53;;;;;;;;;;7393436;19;19999;-72
2023/03/08 06:35:31;;;;;;;19.55;7.32;;;;;;;;;;7397884;19;20014;-72
2023/03/08 06:37:56;;;;;;;15.15;7.22;;;;;;;;;;7393917;19;20018;-72
2023/03/08 06:40:22;;;;;;;15.50;6.70;;;;;;;;;;7396850;19;20002;-72
2023/03/08 06:42:47;;;;;;;15.10;7.43;;;;;;;;;;7392140;19;20005;-72
2023/03/08 06:45:12;;;;;;;14.95;7.32;;;;;;;;;;7396414;19;20002;-71
2023/03/08 06:47:38;;;;;;;15.30;7.55;;;;;;;;;;7397354;19;19994;-72
2023/03/08 06:50:03;;;;;;;15.13;6.63;;;;;;;;;;7394097;19;20449;-72
2023/03/08 06:52:36;;;;;;;13.77;6.70;;;;;;;;;;7392326;19;20070;-72
2023/03/08 06:55:01;;;;;;;14.43;6.88;;;;;;;;;;7394548;19;20006;-72
2023/03/08 06:57:27;;;;;;;14.80;7.40;;;;;;;;;;7396876;19;20014;-72
2023/03/08 06:59:52;;;;;;;12.48;6.43;;;;;;;;;;7393979;19;20014;-72
2023/03/08 07:02:17;;;;;;;13.25;6.20;;;;;;;;;;7393952;19;20011;-71
2023/03/08 07:04:42;;;;;;;16.02;6.43;;;;;;;;;;7394189;19;20005;-72
2023/03/08 07:07:08;;;;;;;13.85;6.68;;;;;;;;;;7395029;19;20165;-72
2023/03/08 07:09:34;;;;;;;13.07;6.70;;;;;;;;;;7394326;19;20002;-71
2023/03/08 07:11:59;;;;;;;14.05;6.70;;;;;;;;;;7392603;19;19998;-71
2023/03/08 07:14:24;;;;;;;15.02;7.03;;;;;;;;;;7387296;19;20011;-74
2023/03/08 07:16:49;;;;;;;14.55;7.40;;;;;;;;;;7388748;19;19994;-76
2023/03/08 07:19:15;;;;;;;11.90;6.65;;;;;;;;;;7392893;19;19994;-73
2023/03/08 07:21:43;;;;;;;13.70;7.00;;;;;;;;;;7387257;19;19998;-75
2023/03/08 07:24:09;;;;;;;14.10;6.57;;;;;;;;;;7386677;19;19990;-75
2023/03/08 07:26:34;;;;;;;14.18;7.03;;;;;;;;;;7389689;19;19995;-75
2023/03/08 07:28:59;;;;;;;15.10;6.72;;;;;;;;;;7393213;19;20118;-75
2023/03/08 07:31:25;;;;;;;10.50;5.72;;;;;;;;;;7392343;19;20345;-75
2023/03/08 07:33:51;;;;;;;16.27;6.85;;;;;;;;;;7390327;19;20023;-73
2023/03/08 07:36:19;;;;;;;17.58;6.65;;;;;;;;;;7392699;19;20432;-73
2023/03/08 07:38:45;;;;;;;13.93;6.55;;;;;;;;;;7394508;19;19995;-73
2023/03/08 07:41:11;;;;;;;16.92;6.75;;;;;;;;;;7394326;19;19998;-76
2023/03/08 07:43:36;;;;;;;13.20;6.78;;;;;;;;;;7392292;19;20488;-75
2023/03/08 07:46:03;;;;;;;20.30;7.20;;;;;;;;;;7392942;19;19999;-74
2023/03/08 07:48:29;;;;;;;16.42;7.13;;;;;;;;;;7390872;19;20362;-74
2023/03/08 07:50:58;;;;;;;14.55;7.47;;;;;;;;;;7394662;19;20006;-74
2023/03/08 07:53:24;;;;;;;15.05;6.90;;;;;;;;;;7389192;19;19998;-73
2023/03/08 07:55:49;;;;;;;17.45;7.32;;;;;;;;;;7394487;19;19997;-73
2023/03/08 07:58:14;;;;;;;15.93;7.78;;;;;;;;;;7392493;19;20020;-73
2023/03/08 08:00:39;;;;;;;16.05;7.80;;;;;;;;;;7394177;19;20003;-72
2023/03/08 08:03:05;;;;;;;16.85;7.35;;;;;;;;;;7392355;19;20009;-71
2023/03/08 08:05:30;;;;;;;15.30;8.25;;;;;;;;;;7395248;19;19994;-73
2023/03/08 08:07:55;;;;;;;20.30;8.73;;;;;;;;;;7389669;19;20105;-73
2023/03/08 08:10:21;;;;;;;19.75;8.32;;;;;;;;;;7392903;19;19998;-73
2023/03/08 08:12:46;;;;;;;18.83;8.82;;;;;;;;;;7390446;19;20396;-73
2023/03/08 08:15:11;;;;;;;18.83;9.10;;;;;;;;;;7393805;19;20024;-72
2023/03/08 08:17:37;;;;;;;17.48;8.20;;;;;;;;;;7394875;19;20015;-73
2023/03/08 08:20:04;;;;;;;16.70;7.88;;;;;;;;;;7392462;19;20496;-73
2023/03/08 08:22:30;;;;;;;16.20;7.82;;;;;;;;;;7392118;19;20002;-73
2023/03/08 08:24:55;;;;;;;13.80;7.43;;;;;;;;;;7391923;19;20007;-73
2023/03/08 08:27:20;;;;;;;22.10;9.98;;;;;;;;;;7392790;19;20013;-73
2023/03/08 08:29:48;;;;;;;20.52;8.68;;;;;;;;;;7392135;19;20286;-72
2023/03/08 08:32:13;;;;;;;15.93;6.90;;;;;;;;;;7389836;19;20002;-72
2023/03/08 08:34:38;;;;;;;16.52;7.68;;;;;;;;;;7391203;19;20003;-72
2023/03/08 08:37:04;;;;;;;19.85;7.65;;;;;;;;;;7392762;19;19994;-73
2023/03/08 08:39:29;;;;;;;18.30;8.88;;;;;;;;;;7393327;19;20385;-73
2023/03/08 08:41:54;;;;;;;18.30;8.05;;;;;;;;;;7389461;19;20000;-73
2023/03/08 08:44:20;;;;;;;24.13;9.65;;;;;;;;;;7388180;19;19995;-71
2023/03/08 08:46:45;;;;;;;18.33;9.10;;;;;;;;;;7390430;19;20015;-71
2023/03/08 08:49:10;;;;;;;18.20;7.85;;;;;;;;;;7392176;19;19999;-73
2023/03/08 08:51:36;;;;;;;17.65;8.27;;;;;;;;;;7391615;19;20023;-72
2023/03/08 08:54:01;;;;;;;24.33;10.13;;;;;;;;;;7390406;19;20332;-71
2023/03/08 08:56:27;;;;;;;20.17;8.98;;;;;;;;;;7390297;19;20108;-71
2023/03/08 08:58:58;;;;;;;18.50;8.38;;;;;;;;;;7390344;19;20599;-71
2023/03/08 09:01:26;;;;;;;22.85;9.60;;;;;;;;;;7391941;19;20452;-73
2023/03/08 09:03:52;;;;;;;15.95;7.80;;;;;;;;;;7387538;19;20006;-72
2023/03/08 09:06:19;;;;;;;19.88;8.38;;;;;;;;;;7387862;19;20318;-72
2023/03/08 09:08:49;;;;;;;20.42;8.82;;;;;;;;;;7391299;19;20009;-73
2023/03/08 09:11:14;;;;;;;16.60;7.53;;;;;;;;;;7392480;19;20023;-72
2023/03/08 09:13:41;;;;;;;24.75;10.27;;;;;;;;;;7390992;19;19987;-72
2023/03/08 09:16:19;;;;;;;19.08;8.95;;;;;;;;;;7391108;19;20627;-72
2023/03/08 09:18:45;;;;;;;16.20;7.65;;;;;;;;;;7390874;19;20084;-72
2023/03/08 09:21:10;;;;;;;21.88;10.68;;;;;;;;;;7390806;19;19998;-72
2023/03/08 09:23:36;;;;;;;18.92;8.73;;;;;;;;;;7390280;19;19994;-72
2023/03/08 09:26:03;;;;;;;24.77;11.50;;;;;;;;;;7389542;19;20034;-73
2023/03/08 09:28:28;;;;;;;19.88;9.15;;;;;;;;;;7389200;19;19999;-71
2023/03/08 09:30:54;;;;;;;20.60;10.45;;;;;;;;;;7390466;19;19994;-72
2023/03/08 09:33:19;;;;;;;21.10;9.00;;;;;;;;;;7389065;19;20006;-71
2023/03/08 09:35:57;;;;;;;27.48;10.43;;;;;;;;;;7387746;19;19995;-73
2023/03/08 09:38:23;;;;;;;14.60;7.15;;;;;;;;;;7386834;19;20010;-72
2023/03/08 09:41:03;;;;;;;18.60;9.05;;;;;;;;;;7388754;19;20003;-71
2023/03/08 09:43:46;;;;;;;17.05;7.80;;;;;;;;;;7387951;19;20129;-71
2023/03/08 09:46:26;;;;;;;23.08;10.20;;;;;;;;;;7390953;19;20357;-72
2023/03/08 09:48:54;;;;;;;26.85;9.98;;;;;;;;;;7389845;19;19999;-71
2023/03/08 09:51:22;;;;;;;26.65;13.10;;;;;;;;;;7390121;19;20373;-72
2023/03/08 09:53:54;;;;;;;21.52;11.23;;;;;;;;;;7385468;19;19990;-71
2023/03/08 09:56:23;;;;;;;27.10;12.48;;;;;;;;;;7394827;19;19999;-72
2023/03/08 09:59:03;;;;;;;27.30;14.00;;;;;;;;;;7394725;19;20010;-72
2023/03/08 10:01:34;;;;;;;29.73;13.57;;;;;;;;;;7397873;19;19990;-73
2023/03/08 10:04:21;;;;;;;27.27;13.73;;;;;;;;;;7389880;19;20018;-72
2023/03/08 10:06:57;;;;;;;24.00;11.25;;;;;;;;;;7396325;19;20563;-72
2023/03/08 10:09:38;;;;;;;25.17;12.05;;;;;;;;;;7394756;19;19990;-72
2023/03/08 10:12:28;;;;;;;17.70;10.48;;;;;;;;;;7393635;19;20023;-72
2023/03/08 10:15:17;;;;;;;21.98;11.32;;;;;;;;;;7390582;19;20464;-72
2023/03/08 10:17:51;;;;;;;21.30;10.60;;;;;;;;;;7392924;19;20011;-74
2023/03/08 10:20:23;;;;;;;24.23;12.48;;;;;;;;;;7394878;19;20103;-72
2023/03/08 10:23:01;;;;;;;21.77;11.10;;;;;;;;;;7394920;19;19998;-71
2023/03/08 10:25:30;;;;;;;23.88;11.65;;;;;;;;;;7397044;19;19998;-72
2023/03/08 10:27:58;;;;;;;25.02;12.95;;;;;;;;;;7392114;19;20055;-72
2023/03/08 10:30:36;;;;;;;35.72;17.02;;;;;;;;;;7393840;19;19999;-72
2023/03/08 10:33:06;;;;;;;28.52;14.77;;;;;;;;;;7394254;19;20017;-71
2023/03/08 10:35:36;;;;;;;23.27;13.32;;;;;;;;;;7395013;19;20080;-72
2023/03/08 10:38:15;;;;;;;15.52;8.18;;;;;;;;;;7393726;19;20486;-73
2023/03/08 10:40:40;;;;;;;23.60;11.55;;;;;;;;;;7396236;19;19998;-72
2023/03/08 10:43:05;;;;;;;29.75;16.40;;;;;;;;;;7396673;19;20046;-72
2023/03/08 10:45:32;;;;;;;28.25;14.05;;;;;;;;;;7396907;19;20123;-72
2023/03/08 10:48:02;;;;;;;25.05;12.73;;;;;;;;;;7393588;19;19994;-73
2023/03/08 10:50:37;;;;;;;35.35;17.30;;;;;;;;;;7394969;19;20323;-72
2023/03/08 10:53:23;;;;;;;33.00;14.27;;;;;;;;;;7393117;19;19998;-73
2023/03/08 10:55:51;;;;;;;26.48;13.20;;;;;;;;;;7394174;19;19991;-72
2023/03/08 10:58:29;;;;;;;30.10;17.10;;;;;;;;;;7395024;19;20005;-72
2023/03/08 11:00:56;;;;;;;29.50;13.40;;;;;;;;;;7393694;19;19999;-72
2023/03/08 11:03:23;;;;;;;23.20;10.98;;;;;;;;;;7394680;19;20282;-71
2023/03/08 11:06:12;;;;;;;23.25;13.48;;;;;;;;;;7391028;19;20003;-72
2023/03/08 11:08:49;;;;;;;25.02;13.43;;;;;;;;;;7394614;19;20041;-72
2023/03/08 11:11:15;;;;;;;26.80;13.45;;;;;;;;;;7395159;19;20018;-72
2023/03/08 11:13:45;;;;;;;20.55;11.35;;;;;;;;;;7393700;19;19990;-72
2023/03/08 11:16:10;;;;;;;20.45;12.35;;;;;;;;;;7392389;19;20006;-72
2023/03/08 11:19:14;;;;;;;28.65;14.07;;;;;;;;;;7392579;19;19995;-72
2023/03/08 11:21:58;;;;;;;18.15;10.50;;;;;;;;;;7390804;19;19995;-72
2023/03/08 11:25:09;;;;;;;21.42;12.20;;;;;;;;;;7389666;19;20079;-73
2023/03/08 11:27:53;;;;;;;22.73;13.65;;;;;;;;;;7391224;19;20015;-72
2023/03/08 11:30:26;;;;;;;22.42;12.77;;;;;;;;;;7392735;19;20009;-73
2023/03/08 11:32:52;;;;;;;22.15;12.43;;;;;;;;;;7389531;19;20516;-73
2023/03/08 11:35:50;;;;;;;22.55;11.60;;;;;;;;;;7394335;19;20072;-73
2023/03/08 11:38:27;;;;;;;21.15;11.68;;;;;;;;;;7390071;19;20095;-72
2023/03/08 11:41:22;;;;;;;19.42;11.63;;;;;;;;;;7393671;19;20071;-73
2023/03/08 11:44:16;;;;;;;19.08;11.10;;;;;;;;;;7389205;19;19991;-72
2023/03/08 11:46:52;;;;;;;22.65;12.30;;;;;;;;;;7390922;19;19997;-72
2023/03/08 11:49:20;;;;;;;25.30;12.77;;;;;;;;;;7394598;19;20451;-72
2023/03/08 11:52:09;;;;;;;23.13;12.05;;;;;;;;;;7389034;19;20009;-72
2023/03/08 11:55:04;;;;;;;19.38;11.20;;;;;;;;;;7392276;19;20016;-71
2023/03/08 11:57:36;;;;;;;24.25;12.65;;;;;;;;;;7394494;19;20009;-72
2023/03/08 12:00:11;;;;;;;19.75;12.05;;;;;;;;;;7390166;19;20005;-72
2023/03/08 12:02:41;;;;;;;23.77;13.20;;;;;;;;;;7391375;19;20038;-71
2023/03/08 12:05:23;;;;;;;23.27;12.63;;;;;;;;;;7393243;19;20417;-72
2023/03/08 12:07:57;;;;;;;23.15;12.40;;;;;;;;;;7390655;19;19998;-72
2023/03/08 12:10:32;;;;;;;21.20;12.70;;;;;;;;;;7392033;19;20298;-71
2023/03/08 12:13:12;;;;;;;24.27;12.40;;;;;;;;;;7390285;19;20002;-72
2023/03/08 12:16:05;;;;;;;21.42;12.18;;;;;;;;;;7393425;19;19997;-73
2023/03/08 12:18:39;;;;;;;24.17;12.05;;;;;;;;;;7389544;19;20025;-71
2023/03/08 12:21:21;;;;;;;20.10;11.05;;;;;;;;;;7391445;19;20062;-72
2023/03/08 12:23:55;;;;;;;25.50;12.82;;;;;;;;;;7387790;19;20452;-71
2023/03/08 12:26:45;;;;;;;24.98;12.88;;;;;;;;;;7392994;19;20011;-73
2023/03/08 12:29:32;;;;;;;20.75;10.63;;;;;;;;;;7391184;19;20066;-72
2023/03/08 12:31:59;;;;;;;17.92;10.38;;;;;;;;;;7387216;19;20315;-71
2023/03/08 12:34:27;;;;;;;23.52;11.13;;;;;;;;;;7390858;19;20021;-72
2023/03/08 12:36:53;;;;;;;17.60;10.95;;;;;;;;;;7391663;19;20002;-74
2023/03/08 12:39:35;;;;;;;20.98;11.32;;;;;;;;;;7392585;19;19995;-72
2023/03/08 12:42:09;;;;;;;20.92;11.90;;;;;;;;;;7389814;19;20370;-71
2023/03/08 12:44:36;;;;;;;18.15;11.10;;;;;;;;;;7390459;19;20130;-72
2023/03/08 12:47:17;;;;;;;19.40;11.27;;;;;;;;;;7392075;19;20555;-72
2023/03/08 12:49:48;;;;;;;17.30;7.70;;;;;;;;;;7387744;19;19998;-72
2023/03/08 12:52:16;;;;;;;22.48;12.10;;;;;;;;;;7389587;19;20067;-72
2023/03/08 12:54:42;;;;;;;20.38;10.90;;;;;;;;;;7385520;19;20002;-73
2023/03/08 12:57:20;;;;;;;22.38;11.93;;;;;;;;;;7392865;19;20007;-71
2023/03/08 12:59:45;;;;;;;22.63;11.40;;;;;;;;;;7389537;19;20006;-73
2023/03/08 13:02:22;;;;;;;22.60;12.80;;;;;;;;;;7391865;19;20362;-70
2023/03/08 13:04:48;;;;;;;22.15;12.90;;;;;;;;;;7389747;19;20022;-70
2023/03/08 13:07:38;;;;;;;19.30;10.90;;;;;;;;;;7389144;19;20469;-72
2023/03/08 13:10:07;;;;;;;19.80;10.70;;;;;;;;;;7384140;19;19998;-72
2023/03/08 13:12:47;;;;;;;20.45;11.02;;;;;;;;;;7388028;19;20042;-72
2023/03/08 13:15:17;;;;;;;20.20;10.77;;;;;;;;;;7391528;19;20002;-72
2023/03/08 13:17:50;;;;;;;28.92;9.90;;;;;;;;;;7387295;19;20023;-72
2023/03/08 13:20:19;;;;;;;20.33;10.45;;;;;;;;;;7391867;19;19995;-72
2023/03/08 13:23:04;;;;;;;16.20;9.85;;;;;;;;;;7390047;19;20058;-72
2023/03/08 13:25:32;;;;;;;21.95;10.93;;;;;;;;;;7391985;19;20301;-72
2023/03/08 13:28:04;;;;;;;18.65;10.48;;;;;;;;;;7388600;19;20003;-72
2023/03/08 13:30:35;;;;;;;17.75;9.57;;;;;;;;;;7386708;19;20020;-72
2023/03/08 13:33:11;;;;;;;21.10;10.38;;;;;;;;;;7386741;19;20031;-71
2023/03/08 13:35:36;;;;;;;19.25;9.48;;;;;;;;;;7390865;19;20007;-73
2023/03/08 13:38:01;;;;;;;16.60;9.13;;;;;;;;;;7390524;19;20014;-74
2023/03/08 13:40:28;;;;;;;18.27;9.63;;;;;;;;;;7390341;19;20058;-71
2023/03/08 13:42:59;;;;;;;18.13;10.18;;;;;;;;;;7389126;19;20026;-72
2023/03/08 13:45:25;;;;;;;16.90;10.00;;;;;;;;;;7388700;19;20007;-68
2023/03/08 13:47:52;;;;;;;21.48;9.88;;;;;;;;;;7387454;19;20006;-69
2023/03/08 13:50:32;;;;;;;18.35;9.27;;;;;;;;;;7387762;19;20018;-70
2023/03/08 13:53:00;;;;;;;16.17;9.52;;;;;;;;;;7387951;19;20066;-70
2023/03/08 13:55:37;;;;;;;19.60;10.95;;;;;;;;;;7388656;19;19999;-69
2023/03/08 13:58:02;;;;;;;17.23;9.57;;;;;;;;;;7385795;19;20009;-71
2023/03/08 14:00:33;;;;;;;16.95;9.40;;;;;;;;;;7387597;19;20002;-70
2023/03/08 14:03:02;;;;;;;;;;;;;;;;;;7385254;19;20006;-71
2023/03/08 14:05:30;;;;;;;17.75;9.15;;;;;;;;;;7389873;19;20249;-71
2023/03/08 14:08:04;;;;;;;20.25;9.77;;;;;;;;;;7386956;19;20022;-70
2023/03/08 14:10:43;;;;;;;14.57;9.23;;;;;;;;;;7387835;19;19998;-70
2023/03/08 14:13:19;;;;;;;17.10;8.02;;;;;;;;;;7385317;19;20010;-71
2023/03/08 14:15:54;;;;;;;19.00;9.73;;;;;;;;;;7384435;19;20002;-70
2023/03/08 14:18:22;;;;;;;19.58;10.48;;;;;;;;;;7387058;19;20003;-70
2023/03/08 14:21:13;;;;;;;18.25;9.88;;;;;;;;;;7388964;19;20007;-71
2023/03/08 14:23:44;;;;;;;18.35;10.88;;;;;;;;;;7385649;19;20414;-69
2023/03/08 14:26:28;;;;;;;18.25;10.35;;;;;;;;;;7386737;19;20048;-69
2023/03/08 14:29:21;;;;;;;16.65;9.95;;;;;;;;;;7388359;19;19999;-70
2023/03/08 14:31:59;;;;;;;18.25;9.93;;;;;;;;;;7385467;19;19998;-71
2023/03/08 14:34:34;;;;;;;18.40;10.50;;;;;;;;;;7385707;19;20392;-72
2023/03/08 14:37:17;;;;;;;18.42;10.27;;;;;;;;;;7387986;19;20006;-70
2023/03/08 14:39:44;;;;;;;16.77;9.40;;;;;;;;;;7385380;19;19994;-71
2023/03/08 14:42:21;;;;;;;17.02;9.88;;;;;;;;;;7392574;19;20027;-70
2023/03/08 14:45:02;;;;;;;16.13;9.23;;;;;;;;;;7394514;19;19998;-70